createdAt,value
2022-07-31T00:00:44.739Z,0.00
2022-07-31T00:01:44.713Z,0.00
2022-07-31T00:02:44.717Z,0.00
2022-07-31T00:03:44.849Z,0.00
2022-07-31T00:04:44.680Z,0.00
2022-07-31T00:05:44.757Z,0.00
2022-07-31T00:06:44.663Z,0.00
2022-07-31T00:07:44.633Z,0.00
2022-07-31T00:08:44.600Z,0.00
2022-07-31T00:09:52.309Z,0.00
2022-07-31T00:10:44.620Z,0.00
2022-07-31T00:11:44.625Z,0.00
2022-07-31T00:12:44.557Z,0.00
2022-07-31T00:13:57.377Z,0.00
2022-07-31T00:14:44.550Z,0.00
2022-07-31T00:15:44.616Z,0.00
2022-07-31T00:16:44.531Z,0.00
2022-07-31T00:17:44.482Z,0.00
2022-07-31T00:18:44.457Z,0.00
2022-07-31T00:19:44.490Z,0.00
2022-07-31T00:20:44.475Z,0.00
2022-07-31T00:21:44.463Z,0.00
2022-07-31T00:22:44.421Z,0.00
2022-07-31T00:23:44.436Z,0.00
2022-07-31T00:24:44.386Z,0.00
2022-07-31T00:25:44.397Z,0.00
2022-07-31T00:26:44.362Z,0.00
2022-07-31T00:27:44.376Z,0.00
2022-07-31T00:28:44.353Z,0.00
2022-07-31T00:29:44.334Z,0.00
2022-07-31T00:30:44.445Z,0.00
2022-07-31T00:31:44.316Z,0.00
2022-07-31T00:32:44.308Z,0.00
2022-07-31T00:33:44.364Z,0.00
2022-07-31T00:34:44.345Z,0.00
2022-07-31T00:35:44.297Z,0.00
2022-07-31T00:36:44.397Z,0.00
2022-07-31T00:37:44.274Z,0.00
2022-07-31T00:38:44.280Z,0.00
2022-07-31T00:39:44.277Z,0.00
2022-07-31T00:40:44.261Z,0.00
2022-07-31T00:41:44.207Z,0.00
2022-07-31T00:42:44.203Z,0.00
2022-07-31T00:43:44.183Z,0.00
2022-07-31T00:44:44.178Z,0.00
2022-07-31T00:45:44.195Z,0.00
2022-07-31T00:46:44.146Z,0.00
2022-07-31T00:47:44.137Z,0.00
2022-07-31T00:48:44.181Z,0.00
2022-07-31T00:49:44.113Z,0.00
2022-07-31T00:50:44.171Z,0.00
2022-07-31T00:51:44.114Z,0.00
2022-07-31T00:52:44.099Z,0.00
2022-07-31T00:53:44.065Z,0.00
2022-07-31T00:54:44.121Z,0.00
2022-07-31T00:55:51.656Z,0.00
2022-07-31T00:56:44.045Z,0.00
2022-07-31T00:57:44.058Z,0.00
2022-07-31T00:58:44.028Z,0.00
2022-07-31T00:59:43.999Z,0.00
2022-07-31T01:00:44.060Z,0.00
2022-07-31T01:01:43.983Z,0.00
2022-07-31T01:02:46.584Z,0.00
2022-07-31T01:03:43.959Z,0.00
2022-07-31T01:04:44.510Z,0.00
2022-07-31T01:05:43.953Z,0.00
2022-07-31T01:06:44.055Z,0.00
2022-07-31T01:07:43.944Z,0.00
2022-07-31T01:08:43.929Z,0.00
2022-07-31T01:09:43.917Z,0.00
2022-07-31T01:10:43.894Z,0.00
2022-07-31T01:11:43.861Z,0.00
2022-07-31T01:12:43.874Z,0.00
2022-07-31T01:13:43.849Z,0.00
2022-07-31T01:14:43.848Z,0.00
2022-07-31T01:15:43.900Z,0.00
2022-07-31T01:16:43.846Z,0.00
2022-07-31T01:17:43.806Z,0.00
2022-07-31T01:18:43.792Z,0.00
2022-07-31T01:19:43.857Z,0.00
2022-07-31T01:20:43.794Z,0.00
2022-07-31T01:21:43.801Z,0.00
2022-07-31T01:22:43.756Z,0.00
2022-07-31T01:23:54.843Z,0.00
2022-07-31T01:24:43.743Z,0.00
2022-07-31T01:25:43.735Z,0.00
2022-07-31T01:26:43.719Z,0.00
2022-07-31T01:27:49.790Z,0.00
2022-07-31T01:28:43.685Z,0.00
2022-07-31T01:29:43.720Z,0.00
2022-07-31T01:30:43.696Z,0.00
2022-07-31T01:31:43.645Z,0.00
2022-07-31T01:32:43.677Z,0.00
2022-07-31T01:33:43.622Z,0.00
2022-07-31T01:34:43.700Z,0.00
2022-07-31T01:35:43.699Z,0.00
2022-07-31T01:36:43.648Z,0.00
2022-07-31T01:37:43.576Z,0.00
2022-07-31T01:38:45.652Z,0.00
2022-07-31T01:39:43.564Z,0.00
2022-07-31T01:40:43.610Z,0.00
2022-07-31T01:41:43.558Z,0.00
2022-07-31T01:42:43.615Z,0.00
2022-07-31T01:43:43.509Z,0.00
2022-07-31T01:44:43.545Z,0.00
2022-07-31T01:45:43.500Z,0.00
2022-07-31T01:46:43.475Z,0.00
2022-07-31T01:47:43.475Z,0.00
2022-07-31T01:48:43.445Z,0.00
2022-07-31T01:49:43.440Z,0.00
2022-07-31T01:50:44.415Z,0.00
2022-07-31T01:51:43.427Z,0.00
2022-07-31T01:52:43.461Z,0.00
2022-07-31T01:53:43.402Z,0.00
2022-07-31T01:54:43.374Z,0.00
2022-07-31T01:56:03.858Z,0.00
2022-07-31T01:56:43.357Z,0.00
2022-07-31T01:57:43.347Z,0.00
2022-07-31T01:58:43.344Z,0.00
2022-07-31T01:59:44.891Z,0.00
2022-07-31T02:00:43.408Z,0.00
2022-07-31T02:01:43.406Z,0.00
2022-07-31T02:02:43.285Z,0.00
2022-07-31T02:03:45.253Z,0.00
2022-07-31T02:04:43.264Z,0.00
2022-07-31T02:05:43.274Z,0.00
2022-07-31T02:06:43.241Z,0.00
2022-07-31T02:07:43.240Z,0.00
2022-07-31T02:08:43.220Z,0.00
2022-07-31T02:09:58.282Z,0.00
2022-07-31T02:10:43.228Z,0.00
2022-07-31T02:11:53.428Z,0.00
2022-07-31T02:12:43.200Z,0.00
2022-07-31T02:13:43.169Z,0.00
2022-07-31T02:14:43.156Z,0.00
2022-07-31T02:15:43.175Z,0.00
2022-07-31T02:16:43.126Z,0.00
2022-07-31T02:17:43.130Z,0.00
2022-07-31T02:18:43.107Z,0.00
2022-07-31T02:19:59.701Z,0.00
2022-07-31T02:20:43.110Z,0.00
2022-07-31T02:21:43.075Z,0.00
2022-07-31T02:22:43.066Z,0.00
2022-07-31T02:23:43.046Z,0.00
2022-07-31T02:24:43.037Z,0.00
2022-07-31T02:25:43.046Z,0.00
2022-07-31T02:26:43.026Z,0.00
2022-07-31T02:27:56.212Z,0.00
2022-07-31T02:28:42.999Z,0.00
2022-07-31T02:29:42.974Z,0.00
2022-07-31T02:30:42.985Z,0.00
2022-07-31T02:31:42.957Z,0.00
2022-07-31T02:32:42.946Z,0.00
2022-07-31T02:33:42.937Z,0.00
2022-07-31T02:34:42.918Z,0.00
2022-07-31T02:35:44.290Z,0.00
2022-07-31T02:36:42.905Z,0.00
2022-07-31T02:37:42.891Z,0.00
2022-07-31T02:38:42.877Z,0.00
2022-07-31T02:39:42.864Z,0.00
2022-07-31T02:40:42.870Z,0.00
2022-07-31T02:41:42.848Z,0.00
2022-07-31T02:42:42.846Z,0.00
2022-07-31T02:43:42.821Z,0.00
2022-07-31T02:44:42.811Z,0.00
2022-07-31T02:45:42.829Z,0.00
2022-07-31T02:46:42.783Z,0.00
2022-07-31T02:47:42.804Z,0.00
2022-07-31T02:48:42.765Z,0.00
2022-07-31T02:49:42.756Z,0.00
2022-07-31T02:50:42.754Z,0.00
2022-07-31T02:51:43.607Z,0.00
2022-07-31T02:52:42.712Z,0.00
2022-07-31T02:53:42.749Z,0.00
2022-07-31T02:54:42.694Z,0.00
2022-07-31T02:55:42.707Z,0.00
2022-07-31T02:56:42.664Z,0.00
2022-07-31T02:57:44.372Z,0.00
2022-07-31T02:58:42.639Z,0.00
2022-07-31T02:59:42.632Z,0.00
2022-07-31T03:00:42.676Z,0.00
2022-07-31T03:01:42.618Z,0.00
2022-07-31T03:02:42.611Z,0.00
2022-07-31T03:03:42.645Z,0.00
2022-07-31T03:04:42.571Z,0.00
2022-07-31T03:05:42.585Z,0.00
2022-07-31T03:06:42.593Z,0.00
2022-07-31T03:07:42.541Z,0.00
2022-07-31T03:08:42.530Z,0.00
2022-07-31T03:09:42.545Z,0.00
2022-07-31T03:10:42.528Z,0.00
2022-07-31T03:11:42.496Z,0.00
2022-07-31T03:12:42.517Z,0.00
2022-07-31T03:13:42.471Z,0.00
2022-07-31T03:14:42.470Z,0.00
2022-07-31T03:15:42.491Z,4.00
2022-07-31T03:16:42.442Z,4.00
2022-07-31T03:17:42.434Z,0.00
2022-07-31T03:18:42.451Z,0.00
2022-07-31T03:19:42.410Z,4.00
2022-07-31T03:20:42.432Z,0.00
2022-07-31T03:21:42.384Z,0.00
2022-07-31T03:22:42.373Z,4.00
2022-07-31T03:23:42.372Z,4.00
2022-07-31T03:24:42.386Z,4.00
2022-07-31T03:25:42.359Z,4.00
2022-07-31T03:26:42.330Z,8.00
2022-07-31T03:27:42.375Z,4.00
2022-07-31T03:28:42.320Z,4.00
2022-07-31T03:29:43.457Z,8.00
2022-07-31T03:30:42.353Z,8.00
2022-07-31T03:31:42.268Z,8.00
2022-07-31T03:32:42.275Z,8.00
2022-07-31T03:33:42.269Z,8.00
2022-07-31T03:34:42.243Z,12.00
2022-07-31T03:35:44.592Z,12.00
2022-07-31T03:36:42.262Z,16.00
2022-07-31T03:37:42.200Z,16.00
2022-07-31T03:38:44.695Z,20.00
2022-07-31T03:39:42.214Z,16.00
2022-07-31T03:40:42.198Z,24.00
2022-07-31T03:41:42.153Z,24.00
2022-07-31T03:42:42.195Z,28.00
2022-07-31T03:43:44.331Z,28.00
2022-07-31T03:44:42.132Z,32.00
2022-07-31T03:45:42.161Z,36.00
2022-07-31T03:46:42.102Z,36.00
2022-07-31T03:47:42.086Z,44.00
2022-07-31T03:48:42.116Z,48.00
2022-07-31T03:49:42.075Z,48.00
2022-07-31T03:50:42.082Z,56.00
2022-07-31T03:51:42.088Z,60.00
2022-07-31T03:52:42.046Z,60.00
2022-07-31T03:53:42.145Z,68.00
2022-07-31T03:54:42.081Z,72.00
2022-07-31T03:55:42.018Z,76.00
2022-07-31T03:56:41.990Z,84.00
2022-07-31T03:57:42.036Z,92.00
2022-07-31T03:58:42.053Z,100.00
2022-07-31T03:59:48.335Z,108.00
2022-07-31T04:00:42.055Z,116.00
2022-07-31T04:01:57.533Z,124.00
2022-07-31T04:02:41.986Z,136.00
2022-07-31T04:03:41.908Z,144.00
2022-07-31T04:04:41.978Z,156.00
2022-07-31T04:05:41.919Z,164.00
2022-07-31T04:06:41.883Z,168.00
2022-07-31T04:07:41.885Z,168.00
2022-07-31T04:08:41.864Z,172.00
2022-07-31T04:09:41.841Z,176.00
2022-07-31T04:10:41.862Z,172.00
2022-07-31T04:11:41.818Z,172.00
2022-07-31T04:12:41.822Z,176.00
2022-07-31T04:13:41.799Z,176.00
2022-07-31T04:14:41.792Z,176.00
2022-07-31T04:15:41.795Z,180.00
2022-07-31T04:16:41.762Z,180.00
2022-07-31T04:17:41.751Z,180.00
2022-07-31T04:18:41.750Z,180.00
2022-07-31T04:19:41.737Z,180.00
2022-07-31T04:20:41.752Z,184.00
2022-07-31T04:21:41.712Z,184.00
2022-07-31T04:22:41.701Z,188.00
2022-07-31T04:23:41.689Z,192.00
2022-07-31T04:24:41.689Z,196.00
2022-07-31T04:25:41.689Z,200.00
2022-07-31T04:26:41.656Z,208.00
2022-07-31T04:27:48.530Z,216.00
2022-07-31T04:28:41.639Z,228.00
2022-07-31T04:29:41.621Z,236.00
2022-07-31T04:30:41.632Z,244.00
2022-07-31T04:31:41.601Z,252.00
2022-07-31T04:32:41.585Z,264.00
2022-07-31T04:33:48.331Z,284.00
2022-07-31T04:34:41.568Z,296.00
2022-07-31T04:35:41.578Z,316.00
2022-07-31T04:36:41.579Z,328.00
2022-07-31T04:37:47.990Z,352.00
2022-07-31T04:38:41.521Z,364.00
2022-07-31T04:39:41.522Z,384.00
2022-07-31T04:40:41.528Z,400.00
2022-07-31T04:41:41.490Z,420.00
2022-07-31T04:42:41.477Z,440.00
2022-07-31T04:43:41.469Z,452.00
2022-07-31T04:44:41.451Z,472.00
2022-07-31T04:45:41.460Z,484.00
2022-07-31T04:46:41.451Z,512.00
2022-07-31T04:47:41.432Z,540.00
2022-07-31T04:48:41.412Z,560.00
2022-07-31T04:49:41.433Z,572.00
2022-07-31T04:50:41.405Z,584.00
2022-07-31T04:51:41.369Z,592.00
2022-07-31T04:52:41.386Z,604.00
2022-07-31T04:53:41.355Z,580.00
2022-07-31T04:54:41.339Z,560.00
2022-07-31T04:55:41.385Z,536.00
2022-07-31T04:56:41.312Z,588.00
2022-07-31T04:57:41.346Z,524.00
2022-07-31T04:58:41.322Z,516.00
2022-07-31T04:59:59.295Z,528.00
2022-07-31T05:00:41.291Z,540.00
2022-07-31T05:01:41.356Z,556.00
2022-07-31T05:02:41.249Z,568.00
2022-07-31T05:03:41.245Z,584.00
2022-07-31T05:04:41.225Z,604.00
2022-07-31T05:05:41.233Z,612.00
2022-07-31T05:06:41.221Z,620.00
2022-07-31T05:07:41.195Z,628.00
2022-07-31T05:08:41.328Z,640.00
2022-07-31T05:09:41.171Z,648.00
2022-07-31T05:10:41.175Z,652.00
2022-07-31T05:11:41.177Z,660.00
2022-07-31T05:12:41.144Z,668.00
2022-07-31T05:13:41.129Z,676.00
2022-07-31T05:14:41.109Z,676.00
2022-07-31T05:15:41.136Z,672.00
2022-07-31T05:16:41.083Z,664.00
2022-07-31T05:17:41.091Z,664.00
2022-07-31T05:18:41.091Z,664.00
2022-07-31T05:19:41.054Z,672.00
2022-07-31T05:20:41.070Z,684.00
2022-07-31T05:21:52.851Z,700.00
2022-07-31T05:22:41.021Z,724.00
2022-07-31T05:23:41.020Z,744.00
2022-07-31T05:24:40.994Z,768.00
2022-07-31T05:25:41.013Z,796.00
2022-07-31T05:26:40.970Z,824.00
2022-07-31T05:27:41.355Z,852.00
2022-07-31T05:28:40.947Z,872.00
2022-07-31T05:29:40.943Z,888.00
2022-07-31T05:30:40.956Z,896.00
2022-07-31T05:31:40.926Z,912.00
2022-07-31T05:32:40.912Z,928.00
2022-07-31T05:33:40.889Z,952.00
2022-07-31T05:34:40.886Z,968.00
2022-07-31T05:35:40.888Z,984.00
2022-07-31T05:36:40.859Z,1008.00
2022-07-31T05:37:40.842Z,1024.00
2022-07-31T05:38:40.851Z,1044.00
2022-07-31T05:39:40.824Z,1060.00
2022-07-31T05:40:40.833Z,1080.00
2022-07-31T05:41:40.802Z,1088.00
2022-07-31T05:42:40.796Z,1112.00
2022-07-31T05:43:40.796Z,1152.00
2022-07-31T05:44:40.772Z,1172.00
2022-07-31T05:45:40.776Z,1180.00
2022-07-31T05:46:40.785Z,1184.00
2022-07-31T05:47:41.196Z,1196.00
2022-07-31T05:48:40.718Z,1216.00
2022-07-31T05:49:40.715Z,1240.00
2022-07-31T05:50:40.730Z,1268.00
2022-07-31T05:51:40.697Z,1304.00
2022-07-31T05:52:40.741Z,1340.00
2022-07-31T05:53:40.671Z,1376.00
2022-07-31T05:54:40.654Z,1400.00
2022-07-31T05:55:40.686Z,1412.00
2022-07-31T05:56:40.637Z,1412.00
2022-07-31T05:57:40.623Z,1392.00
2022-07-31T05:58:40.617Z,1372.00
2022-07-31T05:59:40.592Z,1356.00
2022-07-31T06:00:40.602Z,1368.00
2022-07-31T06:01:40.907Z,1400.00
2022-07-31T06:02:40.572Z,1420.00
2022-07-31T06:03:51.442Z,1468.00
2022-07-31T06:04:40.600Z,1512.00
2022-07-31T06:05:40.552Z,1564.00
2022-07-31T06:06:40.523Z,1620.00
2022-07-31T06:07:40.543Z,1692.00
2022-07-31T06:08:40.570Z,1784.00
2022-07-31T06:09:40.482Z,1820.00
2022-07-31T06:10:40.517Z,1868.00
2022-07-31T06:11:40.495Z,1928.00
2022-07-31T06:12:40.471Z,1976.00
2022-07-31T06:13:40.455Z,2008.00
2022-07-31T06:14:40.470Z,2060.00
2022-07-31T06:15:42.527Z,2072.00
2022-07-31T06:16:40.443Z,2080.00
2022-07-31T06:17:44.508Z,2096.00
2022-07-31T06:18:40.385Z,2120.00
2022-07-31T06:19:40.383Z,2176.00
2022-07-31T06:20:40.402Z,2392.00
2022-07-31T06:21:40.372Z,2328.00
2022-07-31T06:22:40.345Z,2068.00
2022-07-31T06:23:40.385Z,2016.00
2022-07-31T06:24:41.737Z,1980.00
2022-07-31T06:25:40.323Z,1976.00
2022-07-31T06:26:40.335Z,1964.00
2022-07-31T06:27:40.280Z,2000.00
2022-07-31T06:28:48.817Z,1912.00
2022-07-31T06:29:41.598Z,1880.00
2022-07-31T06:30:40.275Z,1868.00
2022-07-31T06:31:40.250Z,1840.00
2022-07-31T06:32:40.256Z,1804.00
2022-07-31T06:33:40.223Z,1752.00
2022-07-31T06:34:40.220Z,1696.00
2022-07-31T06:35:40.233Z,1664.00
2022-07-31T06:36:40.206Z,1628.00
2022-07-31T06:37:40.170Z,1604.00
2022-07-31T06:38:40.171Z,1604.00
2022-07-31T06:39:54.496Z,1640.00
2022-07-31T06:40:40.164Z,1640.00
2022-07-31T06:41:40.148Z,1668.00
2022-07-31T06:42:40.163Z,1644.00
2022-07-31T06:43:40.107Z,1672.00
2022-07-31T06:44:46.090Z,1704.00
2022-07-31T06:45:52.125Z,1728.00
2022-07-31T06:46:49.064Z,1900.00
2022-07-31T06:47:40.083Z,1788.00
2022-07-31T06:48:40.064Z,1752.00
2022-07-31T06:49:40.234Z,1744.00
2022-07-31T06:50:40.052Z,1764.00
2022-07-31T06:51:40.064Z,1732.00
2022-07-31T06:52:40.019Z,1728.00
2022-07-31T06:53:39.996Z,1728.00
2022-07-31T06:54:40.019Z,1744.00
2022-07-31T06:55:44.117Z,1724.00
2022-07-31T06:56:39.974Z,1716.00
2022-07-31T06:57:39.969Z,1724.00
2022-07-31T06:58:39.951Z,1732.00
2022-07-31T06:59:40.888Z,1708.00
2022-07-31T07:00:39.943Z,1728.00
2022-07-31T07:01:39.992Z,1784.00
2022-07-31T07:02:39.906Z,1660.00
2022-07-31T07:03:39.895Z,1592.00
2022-07-31T07:04:56.471Z,1584.00
2022-07-31T07:05:43.826Z,1548.00
2022-07-31T07:06:39.866Z,1520.00
2022-07-31T07:07:39.870Z,1520.00
2022-07-31T07:08:39.834Z,1528.00
2022-07-31T07:09:39.822Z,1572.00
2022-07-31T07:10:39.836Z,1576.00
2022-07-31T07:11:39.792Z,1532.00
2022-07-31T07:12:39.791Z,1548.00
2022-07-31T07:13:45.136Z,1564.00
2022-07-31T07:14:39.786Z,1568.00
2022-07-31T07:15:39.782Z,1632.00
2022-07-31T07:16:39.773Z,1684.00
2022-07-31T07:17:39.730Z,1732.00
2022-07-31T07:18:39.720Z,1768.00
2022-07-31T07:19:39.712Z,1844.00
2022-07-31T07:20:39.724Z,2148.00
2022-07-31T07:21:39.693Z,2216.00
2022-07-31T07:22:39.880Z,2040.00
2022-07-31T07:23:39.673Z,2248.00
2022-07-31T07:24:39.659Z,2128.00
2022-07-31T07:25:39.656Z,2092.00
2022-07-31T07:26:39.646Z,2140.00
2022-07-31T07:27:39.615Z,2148.00
2022-07-31T07:28:39.647Z,2192.00
2022-07-31T07:29:39.591Z,2296.00
2022-07-31T07:30:39.626Z,2388.00
2022-07-31T07:31:39.588Z,2468.00
2022-07-31T07:32:39.645Z,2628.00
2022-07-31T07:33:42.499Z,2584.00
2022-07-31T07:34:39.534Z,2608.00
2022-07-31T07:35:39.543Z,2784.00
2022-07-31T07:36:39.508Z,2732.00
2022-07-31T07:37:39.502Z,2764.00
2022-07-31T07:38:39.669Z,2724.00
2022-07-31T07:39:39.480Z,2748.00
2022-07-31T07:40:39.494Z,2768.00
2022-07-31T07:41:39.458Z,2752.00
2022-07-31T07:42:39.439Z,2852.00
2022-07-31T07:43:39.470Z,2856.00
2022-07-31T07:44:39.447Z,2760.00
2022-07-31T07:45:39.947Z,2784.00
2022-07-31T07:46:39.398Z,2840.00
2022-07-31T07:47:53.940Z,2824.00
2022-07-31T07:48:39.377Z,2888.00
2022-07-31T07:49:39.357Z,2848.00
2022-07-31T07:50:39.357Z,2832.00
2022-07-31T07:52:00.133Z,2844.00
2022-07-31T07:52:43.787Z,2960.00
2022-07-31T07:53:39.355Z,2832.00
2022-07-31T07:54:39.307Z,2912.00
2022-07-31T07:55:39.307Z,2684.00
2022-07-31T07:56:39.276Z,2576.00
2022-07-31T07:57:39.272Z,2544.00
2022-07-31T07:58:39.259Z,2452.00
2022-07-31T07:59:39.255Z,2380.00
2022-07-31T08:00:39.255Z,2392.00
2022-07-31T08:01:39.313Z,2480.00
2022-07-31T08:02:39.214Z,2340.00
2022-07-31T08:03:49.140Z,2352.00
2022-07-31T08:04:39.231Z,2312.00
2022-07-31T08:05:39.213Z,2336.00
2022-07-31T08:06:39.170Z,2388.00
2022-07-31T08:07:42.782Z,2472.00
2022-07-31T08:08:39.155Z,2548.00
2022-07-31T08:09:39.128Z,2640.00
2022-07-31T08:10:39.161Z,2756.00
2022-07-31T08:11:39.139Z,2924.00
2022-07-31T08:12:39.097Z,2920.00
2022-07-31T08:13:40.806Z,2972.00
2022-07-31T08:14:39.072Z,2968.00
2022-07-31T08:15:39.111Z,3048.00
2022-07-31T08:16:39.050Z,3008.00
2022-07-31T08:17:39.044Z,3220.00
2022-07-31T08:18:39.058Z,2956.00
2022-07-31T08:19:39.022Z,3172.00
2022-07-31T08:20:39.027Z,2964.00
2022-07-31T08:21:39.038Z,2976.00
2022-07-31T08:22:38.993Z,2980.00
2022-07-31T08:23:38.979Z,2964.00
2022-07-31T08:24:38.969Z,2912.00
2022-07-31T08:25:38.960Z,2892.00
2022-07-31T08:26:38.955Z,2864.00
2022-07-31T08:27:40.234Z,2836.00
2022-07-31T08:28:38.938Z,2880.00
2022-07-31T08:29:38.911Z,2868.00
2022-07-31T08:30:38.937Z,2816.00
2022-07-31T08:31:38.884Z,2860.00
2022-07-31T08:32:38.974Z,2964.00
2022-07-31T08:33:38.864Z,3052.00
2022-07-31T08:34:41.791Z,2920.00
2022-07-31T08:35:38.867Z,2892.00
2022-07-31T08:36:38.828Z,2896.00
2022-07-31T08:38:02.686Z,3008.00
2022-07-31T08:38:38.810Z,3204.00
2022-07-31T08:39:38.802Z,3260.00
2022-07-31T08:40:43.100Z,3404.00
2022-07-31T08:41:38.787Z,3516.00
2022-07-31T08:42:38.763Z,3604.00
2022-07-31T08:44:00.066Z,3640.00
2022-07-31T08:44:38.755Z,3608.00
2022-07-31T08:45:40.424Z,3924.00
2022-07-31T08:46:38.713Z,3748.00
2022-07-31T08:47:38.700Z,3752.00
2022-07-31T08:48:38.717Z,3724.00
2022-07-31T08:49:38.721Z,3684.00
2022-07-31T08:50:38.706Z,4120.00
2022-07-31T08:52:01.018Z,3924.00
2022-07-31T08:52:38.660Z,3880.00
2022-07-31T08:53:38.651Z,4016.00
2022-07-31T08:54:38.631Z,3992.00
2022-07-31T08:55:56.836Z,3800.00
2022-07-31T08:56:38.666Z,3840.00
2022-07-31T08:57:38.613Z,3660.00
2022-07-31T08:58:39.793Z,3692.00
2022-07-31T08:59:38.624Z,3560.00
2022-07-31T09:00:38.594Z,3744.00
2022-07-31T09:01:38.588Z,3440.00
2022-07-31T09:02:38.555Z,3520.00
2022-07-31T09:03:38.560Z,3472.00
2022-07-31T09:04:38.531Z,3444.00
2022-07-31T09:05:42.301Z,3560.00
2022-07-31T09:06:38.499Z,3628.00
2022-07-31T09:07:38.511Z,3520.00
2022-07-31T09:08:38.507Z,3532.00
2022-07-31T09:09:50.282Z,3420.00
2022-07-31T09:10:38.449Z,3532.00
2022-07-31T09:11:38.560Z,3440.00
2022-07-31T09:12:38.441Z,3524.00
2022-07-31T09:13:38.408Z,3440.00
2022-07-31T09:14:38.434Z,3384.00
2022-07-31T09:15:38.418Z,3392.00
2022-07-31T09:16:38.388Z,3340.00
2022-07-31T09:17:38.385Z,3292.00
2022-07-31T09:18:38.369Z,3216.00
2022-07-31T09:19:52.822Z,3440.00
2022-07-31T09:20:38.363Z,3644.00
2022-07-31T09:21:38.321Z,3516.00
2022-07-31T09:22:38.311Z,3684.00
2022-07-31T09:23:38.354Z,3816.00
2022-07-31T09:24:39.807Z,3772.00
2022-07-31T09:25:38.326Z,4000.00
2022-07-31T09:26:38.282Z,4044.00
2022-07-31T09:27:38.256Z,4376.00
2022-07-31T09:28:38.249Z,4228.00
2022-07-31T09:29:38.240Z,4272.00
2022-07-31T09:30:55.460Z,4372.00
2022-07-31T09:31:38.233Z,4288.00
2022-07-31T09:32:38.224Z,4496.00
2022-07-31T09:33:42.354Z,4904.00
2022-07-31T09:34:38.181Z,5004.00
2022-07-31T09:35:38.197Z,5424.00
2022-07-31T09:36:38.156Z,4504.00
2022-07-31T09:37:38.149Z,4320.00
2022-07-31T09:38:38.138Z,4780.00
2022-07-31T09:39:38.119Z,4500.00
2022-07-31T09:40:57.489Z,4704.00
2022-07-31T09:42:01.322Z,4492.00
2022-07-31T09:42:38.208Z,4996.00
2022-07-31T09:43:51.755Z,4776.00
2022-07-31T09:44:38.068Z,4892.00
2022-07-31T09:45:48.388Z,5012.00
2022-07-31T09:46:38.085Z,5460.00
2022-07-31T09:47:38.078Z,5596.00
2022-07-31T09:48:38.022Z,5076.00
2022-07-31T09:49:38.079Z,5380.00
2022-07-31T09:50:38.032Z,4636.00
2022-07-31T09:51:37.994Z,4408.00
2022-07-31T09:52:37.995Z,4268.00
2022-07-31T09:53:42.982Z,4216.00
2022-07-31T09:54:37.957Z,4256.00
2022-07-31T09:55:37.978Z,4104.00
2022-07-31T09:56:37.927Z,4012.00
2022-07-31T09:57:37.941Z,4256.00
2022-07-31T09:58:37.906Z,4216.00
2022-07-31T09:59:37.907Z,4320.00
2022-07-31T10:00:37.964Z,3896.00
2022-07-31T10:01:37.909Z,3424.00
2022-07-31T10:02:37.882Z,3160.00
2022-07-31T10:03:37.854Z,3112.00
2022-07-31T10:04:37.865Z,3132.00
2022-07-31T10:05:37.866Z,2872.00
2022-07-31T10:06:37.824Z,2888.00
2022-07-31T10:07:37.831Z,2936.00
2022-07-31T10:08:37.801Z,2956.00
2022-07-31T10:09:37.795Z,3104.00
2022-07-31T10:10:37.815Z,3088.00
2022-07-31T10:11:37.783Z,3140.00
2022-07-31T10:12:37.745Z,3292.00
2022-07-31T10:13:37.741Z,3484.00
2022-07-31T10:14:37.725Z,3648.00
2022-07-31T10:15:37.720Z,3660.00
2022-07-31T10:16:37.729Z,3720.00
2022-07-31T10:17:37.706Z,3920.00
2022-07-31T10:18:39.469Z,4032.00
2022-07-31T10:19:37.682Z,4092.00
2022-07-31T10:20:37.693Z,4488.00
2022-07-31T10:21:37.654Z,4048.00
2022-07-31T10:22:37.636Z,3992.00
2022-07-31T10:23:37.636Z,3860.00
2022-07-31T10:24:37.619Z,3820.00
2022-07-31T10:25:37.650Z,3712.00
2022-07-31T10:26:59.727Z,3516.00
2022-07-31T10:27:39.628Z,3556.00
2022-07-31T10:28:37.571Z,3276.00
2022-07-31T10:29:37.559Z,3248.00
2022-07-31T10:30:37.559Z,3212.00
2022-07-31T10:31:37.567Z,3192.00
2022-07-31T10:32:37.530Z,3344.00
2022-07-31T10:33:45.188Z,3400.00
2022-07-31T10:34:37.519Z,3668.00
2022-07-31T10:35:37.497Z,3780.00
2022-07-31T10:36:37.523Z,3720.00
2022-07-31T10:37:37.464Z,4024.00
2022-07-31T10:38:38.466Z,3952.00
2022-07-31T10:39:37.449Z,4316.00
2022-07-31T10:40:37.442Z,4156.00
2022-07-31T10:41:37.438Z,4400.00
2022-07-31T10:42:37.417Z,4448.00
2022-07-31T10:43:37.400Z,4352.00
2022-07-31T10:44:38.920Z,4404.00
2022-07-31T10:45:37.402Z,4888.00
2022-07-31T10:46:37.405Z,4260.00
2022-07-31T10:47:37.372Z,4212.00
2022-07-31T10:48:37.370Z,4220.00
2022-07-31T10:49:37.376Z,4252.00
2022-07-31T10:50:37.324Z,4476.00
2022-07-31T10:51:37.350Z,4860.00
2022-07-31T10:52:37.332Z,4992.00
2022-07-31T10:53:50.335Z,6168.00
2022-07-31T10:54:37.284Z,5524.00
2022-07-31T10:55:37.268Z,5588.00
2022-07-31T10:56:37.338Z,5168.00
2022-07-31T10:57:56.380Z,5052.00
2022-07-31T10:58:37.246Z,5500.00
2022-07-31T10:59:38.985Z,4828.00
2022-07-31T11:00:37.209Z,4672.00
2022-07-31T11:01:37.255Z,4580.00
2022-07-31T11:02:37.209Z,4904.00
2022-07-31T11:03:37.181Z,4908.00
2022-07-31T11:04:37.168Z,5128.00
2022-07-31T11:06:02.441Z,5740.00
2022-07-31T11:06:37.149Z,5436.00
2022-07-31T11:07:37.163Z,5292.00
2022-07-31T11:08:37.136Z,5052.00
2022-07-31T11:09:51.254Z,5228.00
2022-07-31T11:10:37.104Z,4812.00
2022-07-31T11:11:37.115Z,4948.00
2022-07-31T11:12:37.107Z,4832.00
2022-07-31T11:13:37.353Z,4876.00
2022-07-31T11:14:37.058Z,4756.00
2022-07-31T11:15:37.059Z,5172.00
2022-07-31T11:16:37.035Z,5288.00
2022-07-31T11:18:25.048Z,5544.00
2022-07-31T11:18:37.036Z,5556.00
2022-07-31T11:19:41.175Z,5588.00
2022-07-31T11:20:37.015Z,5464.00
2022-07-31T11:21:39.006Z,5572.00
2022-07-31T11:22:36.976Z,5520.00
2022-07-31T11:23:36.994Z,5612.00
2022-07-31T11:24:36.945Z,5772.00
2022-07-31T11:25:36.940Z,5552.00
2022-07-31T11:26:42.020Z,5156.00
2022-07-31T11:27:36.925Z,4972.00
2022-07-31T11:28:36.906Z,4740.00
2022-07-31T11:29:59.751Z,4476.00
2022-07-31T11:30:36.887Z,4472.00
2022-07-31T11:31:36.874Z,4400.00
2022-07-31T11:32:36.903Z,4328.00
2022-07-31T11:33:41.963Z,4096.00
2022-07-31T11:34:36.873Z,4100.00
2022-07-31T11:35:36.846Z,4004.00
2022-07-31T11:36:36.822Z,4152.00
2022-07-31T11:37:56.904Z,4108.00
2022-07-31T11:38:36.829Z,3996.00
2022-07-31T11:39:37.382Z,3800.00
2022-07-31T11:40:36.781Z,3760.00
2022-07-31T11:41:44.267Z,3776.00
2022-07-31T11:42:36.767Z,3928.00
2022-07-31T11:43:36.750Z,4644.00
2022-07-31T11:44:36.745Z,4060.00
2022-07-31T11:45:36.726Z,4072.00
2022-07-31T11:46:36.740Z,3960.00
2022-07-31T11:48:11.385Z,3928.00
2022-07-31T11:48:40.998Z,4188.00
2022-07-31T11:49:44.179Z,3872.00
2022-07-31T11:50:36.691Z,3884.00
2022-07-31T11:51:36.676Z,3828.00
2022-07-31T11:52:37.757Z,3796.00
2022-07-31T11:53:36.648Z,3656.00
2022-07-31T11:54:36.635Z,3600.00
2022-07-31T11:55:36.613Z,3548.00
2022-07-31T11:56:36.643Z,3480.00
2022-07-31T11:57:52.211Z,3480.00
2022-07-31T11:58:36.601Z,3560.00
2022-07-31T11:59:46.149Z,3468.00
2022-07-31T12:00:36.565Z,3688.00
2022-07-31T12:01:36.570Z,3464.00
2022-07-31T12:02:36.618Z,3200.00
2022-07-31T12:03:36.527Z,3112.00
2022-07-31T12:04:36.559Z,2932.00
2022-07-31T12:05:38.731Z,2808.00
2022-07-31T12:06:36.853Z,2676.00
2022-07-31T12:07:36.476Z,2656.00
2022-07-31T12:08:36.526Z,2656.00
2022-07-31T12:10:02.425Z,2736.00
2022-07-31T12:10:36.467Z,3096.00
2022-07-31T12:11:36.459Z,3196.00
2022-07-31T12:12:36.423Z,3456.00
2022-07-31T12:13:36.448Z,3656.00
2022-07-31T12:14:36.422Z,3604.00
2022-07-31T12:15:36.383Z,3704.00
2022-07-31T12:16:36.414Z,3756.00
2022-07-31T12:17:36.391Z,3700.00
2022-07-31T12:18:36.368Z,4084.00
2022-07-31T12:19:37.466Z,3860.00
2022-07-31T12:20:37.197Z,3780.00
2022-07-31T12:21:36.345Z,3520.00
2022-07-31T12:22:36.352Z,3864.00
2022-07-31T12:23:41.145Z,3520.00
2022-07-31T12:24:36.302Z,3564.00
2022-07-31T12:25:36.279Z,3480.00
2022-07-31T12:26:36.309Z,3424.00
2022-07-31T12:27:36.251Z,3532.00
2022-07-31T12:28:36.244Z,3276.00
2022-07-31T12:29:36.265Z,3068.00